ADDS METAR Data INFO
IDs: Format: Raw Decoded Include TAF

Data at: 0040 UTC 23 Oct 2017

KMLB 222353Z 12009KT 9SM FEW031 28/23 A3009 RMK AO2 SLP189 T02780233 10306 20278 53003
KMLB 222253Z 12009KT 9SM OVC032 28/23 A3008 RMK AO2 SLP187 T02780233
KMLB 222245Z 13009KT 8SM OVC030 28/23 A3008 RMK AO2 T02830233
KMLB 222218Z 13011KT 8SM OVC028 28/23 A3008 RMK AO2 T02830233
KMLB 222153Z COR 12013KT 8SM FEW030 28/23 A3008 RMK AO2 SLP184 T02830233
KMLB 222053Z 13011G20KT 9SM SCT030 29/23 A3008 RMK AO2 SLP186 T02890233 56009
KMLB 221953Z 13014KT 9SM FEW027 30/23 A3008 RMK AO2 SLP186 T03000233
KMLB 221853Z 14016G20KT 10SM CLR 30/23 A3009 RMK AO2 SLP190 T03000233
KMLB 221753Z COR 12014G19KT 10SM FEW030 30/23 A3011 RMK AO2 SLP195 T03000233 10306 20272 58014
KMLB 221653Z 12013G19KT 9SM SCT022 SCT029 30/24 A3013 RMK AO2 SLP203 T03000239
KMLB 221553Z 13013KT 5SM HZ SCT022 BKN029 30/24 A3014 RMK AO2 SLP206 T03000239
KMLB 221453Z 13010KT 5SM HZ SCT031 BKN100 29/23 A3015 RMK AO2 SLP209 T02890233 51014
KMLB 221353Z 12011KT 9SM FEW037 BKN100 29/23 A3015 RMK AO2 SLP208 T02890233
KMLB 221314Z 12008KT 8SM SCT023 OVC030 28/24 A3014 RMK AO2 T02830239
KMLB 221253Z 12008KT 8SM SCT012 BKN022 OVC029 28/24 A3013 RMK AO2 SLP201 T02780244
KMLB 221153Z COR 12008KT 7SM SCT012 BKN022 BKN031 27/24 A3011 RMK AO2 RAB10E22 SLP195 VCSH P0000 60000 T02720244 10272 20261 53010
KMLB 221105Z 11010KT 9SM SCT019 BKN029 BKN050 27/24 A3010 RMK AO2 T02720244
KMLB 221053Z 09010KT 10SM SCT033 BKN050 27/24 A3009 RMK AO2 SLP189 VCSH T02670244
KMLB 220953Z 08008KT 10SM BKN027 BKN033 OVC055 26/24 A3009 RMK AO2 SLP188 T02610239
KMLB 220853Z AUTO 09012KT 10SM SCT023 BKN035 BKN043 27/23 A3008 RMK AO2 SLP185 60000 T02720233 55010
KMLB 220753Z AUTO 08011KT 10SM BKN075 27/23 A3008 RMK AO2 RAB23E33 SLP185 P0000 T02670233
KMLB 220653Z AUTO 08012KT 10SM FEW035 SCT048 27/22 A3009 RMK AO2 SLP190 T02720222
KMLB 220553Z AUTO 08012KT 10SM FEW027 SCT037 27/22 A3011 RMK AO2 SLP195 T02720217 10272 20267 58014
KMLB 220453Z AUTO 09012KT 10SM FEW026 27/22 A3013 RMK AO2 SLP201 T02720222 402940256
KMLB 220353Z 09012KT 10SM FEW026 SCT032 27/22 A3014 RMK AO2 SLP206 T02720222
KMLB 220253Z 10012G18KT 10SM FEW035 27/22 A3015 RMK AO2 SLP209 T02720217 53009
KMLB 220153Z 09011KT 10SM CLR 27/22 A3013 RMK AO2 SLP203 T02720217
KMLB 220053Z 08007KT 10SM CLR 27/22 A3013 RMK AO2 SLP202 T02670217
KMLB 212353Z 09010KT 10SM CLR 27/21 A3013 RMK AO2 SLP200 60000 T02720211 10294 20267 51006
KMLB 212253Z 09007KT 10SM CLR 27/21 A3012 RMK AO2 SLP200 T02720206
KMLB 212153Z 09011KT 10SM CLR 28/21 A3012 RMK AO2 SLP197 T02780206
KMLB 212053Z 09011KT 10SM SCT035 OVC050 28/21 A3011 RMK AO2 SLP194 60000 T02780206 55008
KMLB 211953Z 08012KT 10SM SCT027 BKN039 BKN047 28/22 A3011 RMK AO2 RAB34E51 SLP194 P0000 T02780217
KMLB 211853Z 07014KT 10SM SCT028 BKN040 OVC047 28/22 A3011 RMK AO2 SLP195 VCSH T02780217
KMLB 211753Z 08013KT 10SM BKN036 29/22 A3013 RMK AO2 SLP202 T02890217 10294 20261 58006
KMLB 211653Z 08012KT 10SM SCT038 29/20 A3015 RMK AO2 SLP209 T02940200
KMLB 211553Z 09013KT 10SM SCT035 29/19 A3016 RMK AO2 SLP213 T02940189
KMLB 211453Z 08012KT 10SM SCT035 28/19 A3015 RMK AO2 SLP208 T02780189 51015
KMLB 211353Z 08013KT 10SM SCT039 28/19 A3014 RMK AO2 SLP205 T02780194
KMLB 211253Z 07013KT 10SM FEW055 27/18 A3013 RMK AO2 SLP200 T02670183